Terminal Aerodrome Forecast
Issued by NWS

Home | Current Version | Previous Version | Text Only | Print | Product List | Glossary On
Versions: 1 2 3 4 5 6 7 8 9 10 11 12 13 14 15 16 17
000
FTUS44 KCRP 292333
TAFALI
TAF
KALI 292333Z 3000/3024 09009KT P6SM VCSH SCT040 BKN120
     FM300300 05004KT P6SM SCT025 BKN150
     FM300900 03005KT P6SM BKN015 OVC150
     FM301600 06007KT P6SM VCSH SCT025 BKN060 PROB30 3017/3021
      VRB15G25KT 5SM SHRA BR OVC020
     FM302100 07010KT P6SM VCTS SCT030CB BKN100
      TEMPO 3021/3024 VRB15G25KT 3SM TSRA BR OVC025CB=

USA.gov is the U.S. government's official web portal to all federal, state and local government web resources and services.